sensor_id;sensor_type;location;lat;lon;timestamp;pressure;altitude;pressure_sealevel;temperature;humidity
59831;BME280;45711;50.108;13.712;2023-09-07T00:00:29;98600.53;;;14.77;76.98
59831;BME280;45711;50.108;13.712;2023-09-07T00:02:55;98605.16;;;14.48;77.07
59831;BME280;45711;50.108;13.712;2023-09-07T00:05:20;98596.19;;;14.57;77.15
59831;BME280;45711;50.108;13.712;2023-09-07T00:07:46;98599.13;;;14.61;77.15
59831;BME280;45711;50.108;13.712;2023-09-07T00:10:13;98602.91;;;14.60;77.41
59831;BME280;45711;50.108;13.712;2023-09-07T00:12:39;98598.03;;;14.62;78.13
59831;BME280;45711;50.108;13.712;2023-09-07T00:15:05;98600.22;;;14.60;77.98
59831;BME280;45711;50.108;13.712;2023-09-07T00:17:32;98599.91;;;14.62;77.99
59831;BME280;45711;50.108;13.712;2023-09-07T00:19:57;98602.97;;;14.55;77.71
59831;BME280;45711;50.108;13.712;2023-09-07T00:22:23;98595.47;;;14.52;77.41
59831;BME280;45711;50.108;13.712;2023-09-07T00:24:51;98602.78;;;14.46;77.78
59831;BME280;45711;50.108;13.712;2023-09-07T00:27:17;98601.97;;;14.46;77.64
59831;BME280;45711;50.108;13.712;2023-09-07T00:29:43;98602.25;;;14.44;77.50
59831;BME280;45711;50.108;13.712;2023-09-07T00:32:09;98600.66;;;14.43;77.27
59831;BME280;45711;50.108;13.712;2023-09-07T00:34:34;98600.41;;;14.40;77.76
59831;BME280;45711;50.108;13.712;2023-09-07T00:37:00;98604.50;;;14.37;77.65
59831;BME280;45711;50.108;13.712;2023-09-07T00:39:26;98598.56;;;14.35;77.63
59831;BME280;45711;50.108;13.712;2023-09-07T00:41:51;98597.09;;;14.24;78.69
59831;BME280;45711;50.108;13.712;2023-09-07T00:44:18;98597.72;;;14.40;78.35
59831;BME280;45711;50.108;13.712;2023-09-07T00:46:44;98598.03;;;14.38;77.68
59831;BME280;45711;50.108;13.712;2023-09-07T00:49:10;98599.13;;;14.37;77.56
59831;BME280;45711;50.108;13.712;2023-09-07T00:51:35;98604.28;;;14.04;78.54
59831;BME280;45711;50.108;13.712;2023-09-07T00:54:01;98614.50;;;13.73;79.66
59831;BME280;45711;50.108;13.712;2023-09-07T00:56:26;98617.16;;;13.78;80.63
59831;BME280;45711;50.108;13.712;2023-09-07T00:58:53;98617.66;;;13.86;79.45
59831;BME280;45711;50.108;13.712;2023-09-07T01:01:25;98605.19;;;13.95;78.49
59831;BME280;45711;50.108;13.712;2023-09-07T01:03:51;98605.53;;;13.83;78.27
59831;BME280;45711;50.108;13.712;2023-09-07T01:06:20;98601.63;;;13.70;78.79
59831;BME280;45711;50.108;13.712;2023-09-07T01:08:52;98620.13;;;13.77;79.08
59831;BME280;45711;50.108;13.712;2023-09-07T01:11:20;98606.53;;;13.92;77.75
59831;BME280;45711;50.108;13.712;2023-09-07T01:13:48;98605.25;;;13.55;78.33
59831;BME280;45711;50.108;13.712;2023-09-07T01:16:14;98610.28;;;13.62;79.10
59831;BME280;45711;50.108;13.712;2023-09-07T01:18:41;98608.63;;;13.71;79.29
59831;BME280;45711;50.108;13.712;2023-09-07T01:21:08;98609.22;;;13.63;79.09
59831;BME280;45711;50.108;13.712;2023-09-07T01:23:35;98608.69;;;13.61;79.24
59831;BME280;45711;50.108;13.712;2023-09-07T01:26:02;98596.69;;;13.48;78.69
59831;BME280;45711;50.108;13.712;2023-09-07T01:28:28;98608.03;;;13.40;78.98
59831;BME280;45711;50.108;13.712;2023-09-07T01:30:53;98608.59;;;13.37;79.25
59831;BME280;45711;50.108;13.712;2023-09-07T01:33:19;98609.28;;;13.53;78.66
59831;BME280;45711;50.108;13.712;2023-09-07T01:35:45;98590.22;;;13.49;77.73
59831;BME280;45711;50.108;13.712;2023-09-07T01:38:10;98595.75;;;13.29;78.28
59831;BME280;45711;50.108;13.712;2023-09-07T01:40:37;98607.22;;;13.40;78.43
59831;BME280;45711;50.108;13.712;2023-09-07T01:43:03;98609.41;;;13.38;79.31
59831;BME280;45711;50.108;13.712;2023-09-07T01:45:28;98608.44;;;13.13;79.77
59831;BME280;45711;50.108;13.712;2023-09-07T01:47:54;98594.56;;;13.45;79.40
59831;BME280;45711;50.108;13.712;2023-09-07T01:50:20;98594.59;;;13.40;79.44
59831;BME280;45711;50.108;13.712;2023-09-07T01:52:46;98594.03;;;13.43;79.13
59831;BME280;45711;50.108;13.712;2023-09-07T01:55:13;98601.59;;;13.36;79.39
59831;BME280;45711;50.108;13.712;2023-09-07T01:57:40;98605.97;;;13.27;79.79
59831;BME280;45711;50.108;13.712;2023-09-07T02:00:06;98607.81;;;13.37;79.17
59831;BME280;45711;50.108;13.712;2023-09-07T02:02:32;98591.19;;;13.29;79.19
59831;BME280;45711;50.108;13.712;2023-09-07T02:04:58;98596.88;;;13.18;78.82
59831;BME280;45711;50.108;13.712;2023-09-07T02:07:23;98600.16;;;13.04;79.87
59831;BME280;45711;50.108;13.712;2023-09-07T02:09:49;98595.78;;;13.19;79.21
59831;BME280;45711;50.108;13.712;2023-09-07T02:12:14;98589.09;;;13.16;79.74
59831;BME280;45711;50.108;13.712;2023-09-07T02:14:41;98602.28;;;13.13;80.06
59831;BME280;45711;50.108;13.712;2023-09-07T02:17:07;98599.59;;;13.13;79.76
59831;BME280;45711;50.108;13.712;2023-09-07T02:19:32;98597.69;;;13.13;79.36
59831;BME280;45711;50.108;13.712;2023-09-07T02:21:58;98598.06;;;12.96;79.50
59831;BME280;45711;50.108;13.712;2023-09-07T02:24:23;98605.94;;;12.77;80.52
59831;BME280;45711;50.108;13.712;2023-09-07T02:26:49;98603.44;;;12.96;80.25
59831;BME280;45711;50.108;13.712;2023-09-07T02:29:16;98602.88;;;12.99;80.06
59831;BME280;45711;50.108;13.712;2023-09-07T02:31:42;98597.31;;;12.86;79.99
59831;BME280;45711;50.108;13.712;2023-09-07T02:34:08;98603.59;;;12.61;79.01
59831;BME280;45711;50.108;13.712;2023-09-07T02:36:34;98604.81;;;12.24;80.04
59831;BME280;45711;50.108;13.712;2023-09-07T02:39:02;98607.19;;;12.25;80.89
59831;BME280;45711;50.108;13.712;2023-09-07T02:41:30;98610.09;;;12.44;80.42
59831;BME280;45711;50.108;13.712;2023-09-07T02:43:56;98601.16;;;12.69;79.61
59831;BME280;45711;50.108;13.712;2023-09-07T02:46:21;98607.84;;;12.67;79.52
59831;BME280;45711;50.108;13.712;2023-09-07T02:48:48;98608.69;;;12.62;79.40
59831;BME280;45711;50.108;13.712;2023-09-07T02:51:14;98602.00;;;12.60;79.17
59831;BME280;45711;50.108;13.712;2023-09-07T02:53:40;98611.13;;;12.53;79.60
59831;BME280;45711;50.108;13.712;2023-09-07T02:56:05;98613.72;;;12.79;79.19
59831;BME280;45711;50.108;13.712;2023-09-07T02:58:33;98615.59;;;12.78;79.57
59831;BME280;45711;50.108;13.712;2023-09-07T03:00:58;98611.38;;;12.67;79.76
59831;BME280;45711;50.108;13.712;2023-09-07T03:03:24;98606.00;;;12.67;80.44
59831;BME280;45711;50.108;13.712;2023-09-07T03:05:51;98610.06;;;12.49;80.58
59831;BME280;45711;50.108;13.712;2023-09-07T03:08:16;98609.50;;;12.68;80.05
59831;BME280;45711;50.108;13.712;2023-09-07T03:10:45;98619.00;;;12.29;81.44
59831;BME280;45711;50.108;13.712;2023-09-07T03:13:11;98612.81;;;12.34;80.83
59831;BME280;45711;50.108;13.712;2023-09-07T03:15:36;98615.75;;;12.43;80.19
59831;BME280;45711;50.108;13.712;2023-09-07T03:18:03;98607.72;;;12.38;80.14
59831;BME280;45711;50.108;13.712;2023-09-07T03:20:35;98606.66;;;12.33;79.36
59831;BME280;45711;50.108;13.712;2023-09-07T03:23:02;98610.97;;;12.19;79.22
59831;BME280;45711;50.108;13.712;2023-09-07T03:25:27;98613.91;;;12.23;79.23
59831;BME280;45711;50.108;13.712;2023-09-07T03:27:53;98618.22;;;12.24;80.64
59831;BME280;45711;50.108;13.712;2023-09-07T03:30:18;98608.78;;;12.37;80.13
59831;BME280;45711;50.108;13.712;2023-09-07T03:32:44;98610.66;;;12.36;79.33
59831;BME280;45711;50.108;13.712;2023-09-07T03:35:10;98623.88;;;12.12;79.23
59831;BME280;45711;50.108;13.712;2023-09-07T03:37:36;98614.72;;;12.13;79.78
59831;BME280;45711;50.108;13.712;2023-09-07T03:40:05;98630.81;;;12.18;80.42
59831;BME280;45711;50.108;13.712;2023-09-07T03:42:31;98619.81;;;12.30;79.72
59831;BME280;45711;50.108;13.712;2023-09-07T03:44:56;98625.97;;;12.25;79.24
59831;BME280;45711;50.108;13.712;2023-09-07T03:47:22;98629.47;;;12.21;79.21
59831;BME280;45711;50.108;13.712;2023-09-07T03:49:48;98633.78;;;11.66;80.41
59831;BME280;45711;50.108;13.712;2023-09-07T03:52:14;98638.84;;;11.62;80.86
59831;BME280;45711;50.108;13.712;2023-09-07T03:54:39;98641.53;;;11.52;81.92
59831;BME280;45711;50.108;13.712;2023-09-07T03:57:06;98640.53;;;11.89;81.34
59831;BME280;45711;50.108;13.712;2023-09-07T03:59:32;98641.84;;;11.91;80.35
59831;BME280;45711;50.108;13.712;2023-09-07T04:01:57;98645.59;;;11.95;80.46
59831;BME280;45711;50.108;13.712;2023-09-07T04:04:23;98645.88;;;12.04;80.43
59831;BME280;45711;50.108;13.712;2023-09-07T04:06:48;98635.69;;;11.96;80.24
59831;BME280;45711;50.108;13.712;2023-09-07T04:09:14;98637.53;;;11.75;80.97
59831;BME280;45711;50.108;13.712;2023-09-07T04:11:40;98641.28;;;11.79;80.91
59831;BME280;45711;50.108;13.712;2023-09-07T04:14:07;98638.63;;;11.84;81.16
59831;BME280;45711;50.108;13.712;2023-09-07T04:16:32;98634.59;;;11.97;80.58
59831;BME280;45711;50.108;13.712;2023-09-07T04:18:58;98632.47;;;11.89;80.63
59831;BME280;45711;50.108;13.712;2023-09-07T04:21:23;98636.22;;;11.93;79.91
59831;BME280;45711;50.108;13.712;2023-09-07T04:23:49;98639.41;;;11.79;81.48
59831;BME280;45711;50.108;13.712;2023-09-07T04:26:14;98636.22;;;11.93;80.96
59831;BME280;45711;50.108;13.712;2023-09-07T04:28:40;98633.00;;;11.91;79.92
59831;BME280;45711;50.108;13.712;2023-09-07T04:31:07;98630.31;;;11.80;80.77
59831;BME280;45711;50.108;13.712;2023-09-07T04:33:33;98631.13;;;11.76;80.38
59831;BME280;45711;50.108;13.712;2023-09-07T04:36:07;98642.63;;;11.61;80.76
59831;BME280;45711;50.108;13.712;2023-09-07T04:38:32;98638.84;;;11.42;81.77
59831;BME280;45711;50.108;13.712;2023-09-07T04:41:05;98639.41;;;11.64;80.77
59831;BME280;45711;50.108;13.712;2023-09-07T04:43:31;98637.78;;;11.43;80.19
59831;BME280;45711;50.108;13.712;2023-09-07T04:45:56;98639.13;;;11.45;80.81
59831;BME280;45711;50.108;13.712;2023-09-07T04:48:23;98636.94;;;11.17;82.21
59831;BME280;45711;50.108;13.712;2023-09-07T04:50:49;98639.94;;;11.41;81.27
59831;BME280;45711;50.108;13.712;2023-09-07T04:53:14;98646.63;;;11.33;81.64
59831;BME280;45711;50.108;13.712;2023-09-07T04:55:40;98636.97;;;11.37;81.38
59831;BME280;45711;50.108;13.712;2023-09-07T04:58:05;98634.00;;;11.28;82.53
59831;BME280;45711;50.108;13.712;2023-09-07T05:00:31;98642.25;;;11.06;82.61
59831;BME280;45711;50.108;13.712;2023-09-07T05:02:56;98643.59;;;11.04;83.98
59831;BME280;45711;50.108;13.712;2023-09-07T05:05:23;98637.44;;;11.19;83.16
59831;BME280;45711;50.108;13.712;2023-09-07T05:07:49;98650.38;;;11.52;82.72
59831;BME280;45711;50.108;13.712;2023-09-07T05:10:14;98641.28;;;11.69;81.03
59831;BME280;45711;50.108;13.712;2023-09-07T05:12:40;98644.50;;;11.66;81.66
59831;BME280;45711;50.108;13.712;2023-09-07T05:15:06;98655.97;;;11.30;82.58
59831;BME280;45711;50.108;13.712;2023-09-07T05:17:33;98652.81;;;11.54;83.38
59831;BME280;45711;50.108;13.712;2023-09-07T05:19:59;98656.84;;;11.72;82.12
59831;BME280;45711;50.108;13.712;2023-09-07T05:22:25;98651.25;;;11.94;80.92
59831;BME280;45711;50.108;13.712;2023-09-07T05:24:51;98644.25;;;11.88;81.17
59831;BME280;45711;50.108;13.712;2023-09-07T05:27:17;98655.50;;;11.74;81.45
59831;BME280;45711;50.108;13.712;2023-09-07T05:29:42;98652.81;;;11.64;82.12
59831;BME280;45711;50.108;13.712;2023-09-07T05:32:09;98654.69;;;11.58;82.25
59831;BME280;45711;50.108;13.712;2023-09-07T05:34:35;98666.22;;;11.59;82.45
59831;BME280;45711;50.108;13.712;2023-09-07T05:37:00;98656.84;;;11.67;82.39
59831;BME280;45711;50.108;13.712;2023-09-07T05:39:27;98661.19;;;11.93;82.27
59831;BME280;45711;50.108;13.712;2023-09-07T05:41:53;98663.31;;;12.06;81.32
59831;BME280;45711;50.108;13.712;2023-09-07T05:44:18;98664.91;;;11.87;82.53
59831;BME280;45711;50.108;13.712;2023-09-07T05:46:44;98671.91;;;12.03;83.91
59831;BME280;45711;50.108;13.712;2023-09-07T05:49:10;98672.69;;;12.19;83.01
59831;BME280;45711;50.108;13.712;2023-09-07T05:51:35;98663.53;;;12.36;82.58
59831;BME280;45711;50.108;13.712;2023-09-07T05:54:01;98671.34;;;12.22;82.93
59831;BME280;45711;50.108;13.712;2023-09-07T05:56:28;98671.56;;;12.51;83.29
59831;BME280;45711;50.108;13.712;2023-09-07T05:58:55;98671.22;;;12.73;83.04
59831;BME280;45711;50.108;13.712;2023-09-07T06:01:21;98678.13;;;12.94;82.91
59831;BME280;45711;50.108;13.712;2023-09-07T06:03:46;98669.72;;;13.16;82.52
59831;BME280;45711;50.108;13.712;2023-09-07T06:06:14;98666.22;;;13.16;82.45
59831;BME280;45711;50.108;13.712;2023-09-07T06:08:49;98665.66;;;13.19;82.06
59831;BME280;45711;50.108;13.712;2023-09-07T06:11:25;98671.56;;;13.21;82.90
59831;BME280;45711;50.108;13.712;2023-09-07T06:14:20;98668.22;;;13.44;82.06
59831;BME280;45711;50.108;13.712;2023-09-07T06:17:05;98672.56;;;13.79;81.47
59831;BME280;45711;50.108;13.712;2023-09-07T06:19:45;98649.69;;;16.20;74.91
59831;BME280;45711;50.108;13.712;2023-09-07T06:22:11;98630.53;;;17.77;66.38
59831;BME280;45711;50.108;13.712;2023-09-07T06:24:41;98625.50;;;18.46;62.83
59831;BME280;45711;50.108;13.712;2023-09-07T06:27:19;98630.28;;;18.98;61.83
59831;BME280;45711;50.108;13.712;2023-09-07T06:29:53;98627.19;;;18.73;61.22
59831;BME280;45711;50.108;13.712;2023-09-07T06:32:22;98635.09;;;19.01;60.57
59831;BME280;45711;50.108;13.712;2023-09-07T06:34:56;98628.69;;;18.97;60.58
59831;BME280;45711;50.108;13.712;2023-09-07T06:37:28;98631.78;;;19.56;59.39
59831;BME280;45711;50.108;13.712;2023-09-07T06:39:57;98629.19;;;20.12;57.53
59831;BME280;45711;50.108;13.712;2023-09-07T06:42:22;98628.91;;;20.90;55.63
59831;BME280;45711;50.108;13.712;2023-09-07T06:44:50;98628.44;;;20.88;55.23
59831;BME280;45711;50.108;13.712;2023-09-07T06:47:17;98632.84;;;21.01;54.45
59831;BME280;45711;50.108;13.712;2023-09-07T06:49:48;98637.47;;;21.00;54.85
59831;BME280;45711;50.108;13.712;2023-09-07T06:52:28;98634.16;;;21.45;54.72
59831;BME280;45711;50.108;13.712;2023-09-07T06:55:02;98641.31;;;21.50;54.38
59831;BME280;45711;50.108;13.712;2023-09-07T06:57:38;98637.81;;;22.49;51.51
59831;BME280;45711;50.108;13.712;2023-09-07T07:00:08;98635.31;;;22.11;52.03
59831;BME280;45711;50.108;13.712;2023-09-07T07:02:37;98638.56;;;22.37;51.30
59831;BME280;45711;50.108;13.712;2023-09-07T07:05:03;98639.72;;;21.49;54.54
59831;BME280;45711;50.108;13.712;2023-09-07T07:07:30;98646.56;;;22.54;51.92
59831;BME280;45711;50.108;13.712;2023-09-07T07:09:57;98642.69;;;22.43;53.20
59831;BME280;45711;50.108;13.712;2023-09-07T07:12:25;98640.16;;;21.72;53.95
59831;BME280;45711;50.108;13.712;2023-09-07T07:14:52;98645.91;;;23.06;51.51
59831;BME280;45711;50.108;13.712;2023-09-07T07:17:25;98653.47;;;23.38;50.75
59831;BME280;45711;50.108;13.712;2023-09-07T07:19:55;98643.00;;;24.08;49.30
59831;BME280;45711;50.108;13.712;2023-09-07T07:22:28;98646.59;;;23.96;49.65
59831;BME280;45711;50.108;13.712;2023-09-07T07:25:00;98641.84;;;23.65;50.46
59831;BME280;45711;50.108;13.712;2023-09-07T07:27:33;98646.25;;;24.73;48.07
59831;BME280;45711;50.108;13.712;2023-09-07T07:30:02;98648.44;;;24.68;47.65
59831;BME280;45711;50.108;13.712;2023-09-07T07:32:37;98637.59;;;24.87;47.54
59831;BME280;45711;50.108;13.712;2023-09-07T07:35:07;98640.44;;;25.26;46.06
59831;BME280;45711;50.108;13.712;2023-09-07T07:37:35;98642.22;;;25.18;46.50
59831;BME280;45711;50.108;13.712;2023-09-07T07:40:01;98639.50;;;25.18;48.35
59831;BME280;45711;50.108;13.712;2023-09-07T07:42:26;98639.25;;;25.43;46.28
59831;BME280;45711;50.108;13.712;2023-09-07T07:44:52;98640.75;;;25.21;47.13
59831;BME280;45711;50.108;13.712;2023-09-07T07:47:18;98639.31;;;25.11;45.41
59831;BME280;45711;50.108;13.712;2023-09-07T07:49:53;98638.31;;;25.35;45.29
59831;BME280;45711;50.108;13.712;2023-09-07T07:52:22;98648.16;;;24.25;46.57
59831;BME280;45711;50.108;13.712;2023-09-07T07:54:49;98649.31;;;25.03;48.59
59831;BME280;45711;50.108;13.712;2023-09-07T07:57:17;98643.66;;;24.96;45.54
59831;BME280;45711;50.108;13.712;2023-09-07T07:59:46;98638.63;;;24.35;46.77
59831;BME280;45711;50.108;13.712;2023-09-07T08:02:14;98642.81;;;24.61;47.12
59831;BME280;45711;50.108;13.712;2023-09-07T08:04:40;98634.31;;;25.32;46.75
59831;BME280;45711;50.108;13.712;2023-09-07T08:07:10;98639.53;;;23.67;48.20
59831;BME280;45711;50.108;13.712;2023-09-07T08:09:36;98633.22;;;23.39;48.63
59831;BME280;45711;50.108;13.712;2023-09-07T08:12:03;98641.16;;;22.91;50.81
59831;BME280;45711;50.108;13.712;2023-09-07T08:14:29;98634.75;;;22.87;50.71
59831;BME280;45711;50.108;13.712;2023-09-07T08:16:57;98639.44;;;23.92;48.58
59831;BME280;45711;50.108;13.712;2023-09-07T08:19:23;98633.72;;;22.55;52.48
59831;BME280;45711;50.108;13.712;2023-09-07T08:21:49;98632.91;;;22.54;51.74
59831;BME280;45711;50.108;13.712;2023-09-07T08:24:18;98633.59;;;22.76;52.52
59831;BME280;45711;50.108;13.712;2023-09-07T08:26:50;98633.66;;;24.25;50.85
59831;BME280;45711;50.108;13.712;2023-09-07T08:29:19;98627.03;;;22.77;50.59
59831;BME280;45711;50.108;13.712;2023-09-07T08:31:50;98627.34;;;22.63;55.14
59831;BME280;45711;50.108;13.712;2023-09-07T08:34:16;98629.06;;;23.57;52.75
59831;BME280;45711;50.108;13.712;2023-09-07T08:36:41;98625.09;;;23.54;49.86
59831;BME280;45711;50.108;13.712;2023-09-07T08:39:07;98622.00;;;23.16;51.46
59831;BME280;45711;50.108;13.712;2023-09-07T08:41:38;98620.00;;;23.81;51.58
59831;BME280;45711;50.108;13.712;2023-09-07T08:44:10;98617.13;;;23.09;50.56
59831;BME280;45711;50.108;13.712;2023-09-07T08:46:36;98614.91;;;21.83;54.67
59831;BME280;45711;50.108;13.712;2023-09-07T08:49:03;98610.91;;;22.60;55.50
59831;BME280;45711;50.108;13.712;2023-09-07T08:51:30;98612.22;;;22.17;54.33
59831;BME280;45711;50.108;13.712;2023-09-07T08:53:57;98620.91;;;23.04;54.88
59831;BME280;45711;50.108;13.712;2023-09-07T08:56:23;98610.13;;;24.68;49.10
59831;BME280;45711;50.108;13.712;2023-09-07T08:58:51;98607.25;;;22.92;51.07
59831;BME280;45711;50.108;13.712;2023-09-07T09:01:16;98609.06;;;21.61;55.17
59831;BME280;45711;50.108;13.712;2023-09-07T09:03:42;98607.25;;;22.92;53.96
59831;BME280;45711;50.108;13.712;2023-09-07T09:06:09;98602.31;;;21.58;55.82
59831;BME280;45711;50.108;13.712;2023-09-07T09:08:44;98606.00;;;21.41;56.40
59831;BME280;45711;50.108;13.712;2023-09-07T09:11:09;98602.59;;;22.68;53.41
59831;BME280;45711;50.108;13.712;2023-09-07T09:13:36;98595.31;;;22.48;53.05
59831;BME280;45711;50.108;13.712;2023-09-07T09:16:03;98605.44;;;22.02;56.06
59831;BME280;45711;50.108;13.712;2023-09-07T09:18:29;98591.56;;;22.52;52.94
59831;BME280;45711;50.108;13.712;2023-09-07T09:20:55;98604.75;;;21.60;55.98
59831;BME280;45711;50.108;13.712;2023-09-07T09:23:21;98598.13;;;23.53;52.87
59831;BME280;45711;50.108;13.712;2023-09-07T09:25:47;98597.16;;;22.68;52.62
59831;BME280;45711;50.108;13.712;2023-09-07T09:28:16;98602.09;;;21.51;56.83
59831;BME280;45711;50.108;13.712;2023-09-07T09:30:42;98606.69;;;22.62;53.07
59831;BME280;45711;50.108;13.712;2023-09-07T09:33:11;98603.25;;;23.14;52.01
59831;BME280;45711;50.108;13.712;2023-09-07T09:35:38;98599.41;;;22.78;53.53
59831;BME280;45711;50.108;13.712;2023-09-07T09:38:04;98594.34;;;23.57;50.01
59831;BME280;45711;50.108;13.712;2023-09-07T09:40:30;98591.16;;;21.72;55.69
59831;BME280;45711;50.108;13.712;2023-09-07T09:42:57;98592.97;;;23.23;54.23
59831;BME280;45711;50.108;13.712;2023-09-07T09:45:23;98592.38;;;22.65;54.59
59831;BME280;45711;50.108;13.712;2023-09-07T09:47:53;98573.53;;;24.41;47.65
59831;BME280;45711;50.108;13.712;2023-09-07T09:50:21;98578.44;;;23.07;51.34
59831;BME280;45711;50.108;13.712;2023-09-07T09:52:48;98580.06;;;21.89;55.63
59831;BME280;45711;50.108;13.712;2023-09-07T09:55:15;98581.78;;;21.81;55.40
59831;BME280;45711;50.108;13.712;2023-09-07T09:57:41;98574.53;;;21.52;56.81
59831;BME280;45711;50.108;13.712;2023-09-07T10:00:08;98579.28;;;22.58;53.64
59831;BME280;45711;50.108;13.712;2023-09-07T10:02:55;98568.13;;;23.13;51.42
59831;BME280;45711;50.108;13.712;2023-09-07T10:05:25;98568.50;;;22.25;54.18
59831;BME280;45711;50.108;13.712;2023-09-07T10:07:51;98574.53;;;21.86;55.81
59831;BME280;45711;50.108;13.712;2023-09-07T10:10:18;98566.75;;;21.75;55.98
59831;BME280;45711;50.108;13.712;2023-09-07T10:12:50;98564.59;;;22.14;54.88
59831;BME280;45711;50.108;13.712;2023-09-07T10:15:22;98560.53;;;23.62;50.42
59831;BME280;45711;50.108;13.712;2023-09-07T10:17:48;98559.97;;;22.51;53.60
59831;BME280;45711;50.108;13.712;2023-09-07T10:20:16;98556.34;;;24.40;48.78
59831;BME280;45711;50.108;13.712;2023-09-07T10:22:43;98559.13;;;24.28;48.75
59831;BME280;45711;50.108;13.712;2023-09-07T10:25:20;98557.75;;;23.06;53.01
59831;BME280;45711;50.108;13.712;2023-09-07T10:27:47;98552.13;;;22.50;54.48
59831;BME280;45711;50.108;13.712;2023-09-07T10:30:13;98558.63;;;25.24;46.50
59831;BME280;45711;50.108;13.712;2023-09-07T10:32:39;98550.34;;;23.19;51.29
59831;BME280;45711;50.108;13.712;2023-09-07T10:35:15;98544.53;;;23.76;50.65
59831;BME280;45711;50.108;13.712;2023-09-07T10:37:46;98545.50;;;24.44;48.68
59831;BME280;45711;50.108;13.712;2023-09-07T10:40:19;98547.38;;;25.49;45.31
59831;BME280;45711;50.108;13.712;2023-09-07T10:42:45;98546.13;;;23.49;51.50
59831;BME280;45711;50.108;13.712;2023-09-07T10:45:11;98540.44;;;25.74;43.87
59831;BME280;45711;50.108;13.712;2023-09-07T10:47:41;98537.97;;;23.09;50.78
59831;BME280;45711;50.108;13.712;2023-09-07T10:50:07;98540.88;;;24.16;48.66
59831;BME280;45711;50.108;13.712;2023-09-07T10:52:33;98528.31;;;23.68;48.15
59831;BME280;45711;50.108;13.712;2023-09-07T10:55:01;98537.56;;;24.39;47.58
59831;BME280;45711;50.108;13.712;2023-09-07T10:57:26;98540.72;;;22.97;51.60
59831;BME280;45711;50.108;13.712;2023-09-07T10:59:52;98536.97;;;22.03;54.71
59831;BME280;45711;50.108;13.712;2023-09-07T11:02:20;98527.81;;;22.45;53.37
59831;BME280;45711;50.108;13.712;2023-09-07T11:04:46;98525.47;;;25.10;45.97
59831;BME280;45711;50.108;13.712;2023-09-07T11:07:13;98518.28;;;24.35;47.05
59831;BME280;45711;50.108;13.712;2023-09-07T11:09:40;98523.31;;;23.70;49.61
59831;BME280;45711;50.108;13.712;2023-09-07T11:12:08;98533.81;;;23.55;49.67
59831;BME280;45711;50.108;13.712;2023-09-07T11:14:34;98531.94;;;24.67;46.12
59831;BME280;45711;50.108;13.712;2023-09-07T11:17:00;98522.38;;;23.38;50.05
59831;BME280;45711;50.108;13.712;2023-09-07T11:19:26;98523.16;;;24.26;46.80
59831;BME280;45711;50.108;13.712;2023-09-07T11:21:53;98526.56;;;23.19;49.89
59831;BME280;45711;50.108;13.712;2023-09-07T11:24:19;98521.13;;;24.23;47.08
59831;BME280;45711;50.108;13.712;2023-09-07T11:26:46;98513.56;;;23.00;51.41
59831;BME280;45711;50.108;13.712;2023-09-07T11:29:15;98510.72;;;23.97;48.62
59831;BME280;45711;50.108;13.712;2023-09-07T11:31:41;98512.25;;;23.10;51.48
59831;BME280;45711;50.108;13.712;2023-09-07T11:34:09;98505.50;;;24.23;47.77
59831;BME280;45711;50.108;13.712;2023-09-07T11:36:35;98500.13;;;23.79;48.76
59831;BME280;45711;50.108;13.712;2023-09-07T11:39:01;98509.56;;;23.38;49.43
59831;BME280;45711;50.108;13.712;2023-09-07T11:41:31;98501.13;;;23.03;51.53
59831;BME280;45711;50.108;13.712;2023-09-07T11:43:57;98509.13;;;22.96;52.05
59831;BME280;45711;50.108;13.712;2023-09-07T11:46:24;98496.81;;;24.69;43.83
59831;BME280;45711;50.108;13.712;2023-09-07T11:48:49;98507.25;;;24.31;46.52
59831;BME280;45711;50.108;13.712;2023-09-07T11:51:15;98508.31;;;25.32;41.29
59831;BME280;45711;50.108;13.712;2023-09-07T11:53:41;98510.97;;;23.76;46.64
59831;BME280;45711;50.108;13.712;2023-09-07T11:56:06;98502.16;;;23.54;48.52
59831;BME280;45711;50.108;13.712;2023-09-07T11:58:32;98515.13;;;22.89;51.55
59831;BME280;45711;50.108;13.712;2023-09-07T12:00:57;98505.66;;;24.46;46.24
59831;BME280;45711;50.108;13.712;2023-09-07T12:03:27;98513.16;;;24.33;45.12
59831;BME280;45711;50.108;13.712;2023-09-07T12:05:55;98495.25;;;24.52;44.75
59831;BME280;45711;50.108;13.712;2023-09-07T12:08:21;98494.22;;;23.77;47.04
59831;BME280;45711;50.108;13.712;2023-09-07T12:10:46;98505.09;;;25.27;41.24
59831;BME280;45711;50.108;13.712;2023-09-07T12:13:12;98487.88;;;23.89;47.64
59831;BME280;45711;50.108;13.712;2023-09-07T12:15:38;98504.75;;;23.07;50.29
59831;BME280;45711;50.108;13.712;2023-09-07T12:18:06;98492.63;;;24.40;46.04
59831;BME280;45711;50.108;13.712;2023-09-07T12:20:34;98492.03;;;23.55;49.32
59831;BME280;45711;50.108;13.712;2023-09-07T12:23:02;98494.69;;;23.51;49.74
59831;BME280;45711;50.108;13.712;2023-09-07T12:25:28;98494.75;;;23.55;49.68
59831;BME280;45711;50.108;13.712;2023-09-07T12:27:54;98491.63;;;25.02;43.73
59831;BME280;45711;50.108;13.712;2023-09-07T12:30:20;98497.56;;;24.18;47.51
59831;BME280;45711;50.108;13.712;2023-09-07T12:32:47;98493.97;;;23.82;47.96
59831;BME280;45711;50.108;13.712;2023-09-07T12:35:13;98492.00;;;24.30;46.89
59831;BME280;45711;50.108;13.712;2023-09-07T12:37:41;98482.84;;;24.07;46.68
59831;BME280;45711;50.108;13.712;2023-09-07T12:40:08;98493.19;;;23.54;48.76
59831;BME280;45711;50.108;13.712;2023-09-07T12:42:38;98485.94;;;23.74;48.33
59831;BME280;45711;50.108;13.712;2023-09-07T12:45:06;98479.50;;;23.98;48.24
59831;BME280;45711;50.108;13.712;2023-09-07T12:47:32;98476.84;;;23.86;48.83
59831;BME280;45711;50.108;13.712;2023-09-07T12:49:57;98472.97;;;24.18;46.63